Time;durP1;ratioP1;P1;durP2;ratioP2;P2;SDS_P1;SDS_P2;PMS_P1;PMS_P2;Temp;Humidity;BMP_temperature;BMP_pressure;BME280_temperature;BME280_humidity;BME280_pressure;Samples;Min_cycle;Max_cycle;Signal;HPM_P1;HPM_P2
2021/07/26 00:02:10;;;;;;;13.27;10.93;;;19.20;99.90;;;;;;5042652;28;20196;-48
2021/07/26 00:04:38;;;;;;;11.80;10.67;;;19.30;99.90;;;;;;5044403;28;20286;-46
2021/07/26 00:07:05;;;;;;;12.30;11.10;;;19.20;99.90;;;;;;5036571;28;20738;-45
2021/07/26 00:09:33;;;;;;;14.13;11.00;;;19.20;99.90;;;;;;5037048;28;20332;-43
2021/07/26 00:12:00;;;;;;;11.67;10.50;;;19.20;99.90;;;;;;5042889;28;20265;-50
2021/07/26 00:14:27;;;;;;;11.60;10.50;;;19.10;99.90;;;;;;5042060;28;20179;-44
2021/07/26 00:16:53;;;;;;;11.20;10.20;;;19.10;99.90;;;;;;5044813;28;20704;-45
2021/07/26 00:19:21;;;;;;;13.43;11.50;;;19.10;99.90;;;;;;5040802;28;20172;-43
2021/07/26 00:21:48;;;;;;;15.23;11.93;;;19.00;99.90;;;;;;5044938;28;20199;-44
2021/07/26 00:24:14;;;;;;;11.50;10.40;;;19.00;99.90;;;;;;5026946;28;20203;-47
2021/07/26 00:26:41;;;;;;;12.40;11.10;;;18.90;99.90;;;;;;5043611;28;20228;-44
2021/07/26 00:29:07;;;;;;;14.87;12.13;;;18.80;99.90;;;;;;5042273;28;20230;-49
2021/07/26 00:31:34;;;;;;;11.73;10.63;;;18.90;99.90;;;;;;5043520;28;20423;-44
2021/07/26 00:34:26;;;;;;;12.93;11.63;;;18.80;99.90;;;;;;5043361;28;20204;-50
2021/07/26 00:36:54;;;;;;;11.80;10.70;;;18.90;99.90;;;;;;5044353;28;20227;-45
2021/07/26 00:39:23;;;;;;;13.03;11.70;;;18.80;99.90;;;;;;5026610;28;20196;-44
2021/07/26 00:41:50;;;;;;;13.00;11.70;;;18.80;99.90;;;;;;5044252;28;20199;-43
2021/07/26 00:44:18;;;;;;;13.93;12.53;;;18.80;99.90;;;;;;5040271;28;20183;-43
2021/07/26 00:46:46;;;;;;;13.80;12.43;;;18.80;99.90;;;;;;5044618;28;20716;-44
2021/07/26 00:49:14;;;;;;;13.23;11.93;;;18.70;99.90;;;;;;5040342;28;20215;-47
2021/07/26 00:51:44;;;;;;;13.50;12.13;;;18.70;99.90;;;;;;5044262;28;20191;-44
2021/07/26 00:54:13;;;;;;;13.37;12.10;;;18.70;99.90;;;;;;5027602;28;20549;-46
2021/07/26 00:56:40;;;;;;;13.63;12.23;;;18.60;99.90;;;;;;5043755;28;20222;-43
2021/07/26 00:59:07;;;;;;;14.40;13.00;;;18.60;99.90;;;;;;5041693;28;20676;-48
2021/07/26 01:01:34;;;;;;;17.60;15.13;;;18.60;99.90;;;;;;5042847;28;20183;-44
2021/07/26 01:04:00;;;;;;;15.40;12.80;;;18.60;99.90;;;;;;5042783;28;20207;-50
2021/07/26 01:06:27;;;;;;;15.30;13.73;;;18.60;99.90;;;;;;5041390;28;20203;-44
2021/07/26 01:08:55;;;;;;;15.73;14.13;;;18.60;99.90;;;;;;5043340;28;20218;-43
2021/07/26 01:11:23;;;;;;;16.07;14.47;;;18.60;99.90;;;;;;5026817;28;20910;-44
2021/07/26 01:13:49;;;;;;;16.33;14.57;;;18.60;99.90;;;;;;5043347;28;20204;-45
2021/07/26 01:16:17;;;;;;;16.73;14.97;;;18.50;99.90;;;;;;5040141;28;20820;-44
2021/07/26 01:18:43;;;;;;;16.83;15.17;;;18.60;99.90;;;;;;5043663;28;20192;-44
2021/07/26 01:21:13;;;;;;;15.90;14.23;;;18.60;99.90;;;;;;5040576;28;20203;-47
2021/07/26 01:23:41;;;;;;;16.53;14.93;;;18.60;99.90;;;;;;5040123;28;20195;-50
2021/07/26 01:26:10;;;;;;;18.70;14.83;;;18.60;99.90;;;;;;5022179;28;20219;-45
2021/07/26 01:28:38;;;;;;;18.87;16.00;;;18.60;99.90;;;;;;5042346;28;20212;-47
2021/07/26 01:31:06;;;;;;;15.47;13.87;;;18.60;99.90;;;;;;5039286;28;20985;-43
2021/07/26 01:33:33;;;;;;;15.93;14.23;;;18.60;99.90;;;;;;5043486;28;20210;-45
2021/07/26 01:36:00;;;;;;;16.83;14.83;;;18.60;99.90;;;;;;5038368;28;20294;-45
2021/07/26 01:38:29;;;;;;;17.80;15.70;;;18.60;99.90;;;;;;5042554;28;20191;-44
2021/07/26 01:41:01;;;;;;;16.17;13.20;;;18.60;99.90;;;;;;5025976;28;20442;-43
2021/07/26 01:43:32;;;;;;;17.43;14.97;;;18.60;99.90;;;;;;5047727;28;20195;-45
2021/07/26 01:46:07;;;;;;;16.63;14.90;;;18.60;99.90;;;;;;5059359;28;20203;-43
2021/07/26 01:48:44;;;;;;;16.27;14.47;;;18.60;99.90;;;;;;5063353;28;20206;-44
2021/07/26 01:51:16;;;;;;;17.57;15.37;;;18.50;99.90;;;;;;5062237;28;20273;-46
2021/07/26 01:53:44;;;;;;;19.47;17.47;;;18.50;99.90;;;;;;5041059;28;20308;-45
2021/07/26 01:56:11;;;;;;;17.23;14.83;;;18.40;99.90;;;;;;5029650;28;20223;-44
2021/07/26 01:58:39;;;;;;;19.60;16.17;;;18.40;99.90;;;;;;5039027;28;20219;-50
2021/07/26 02:01:05;;;;;;;16.73;15.00;;;18.50;99.90;;;;;;5043279;28;20192;-44
2021/07/26 02:03:32;;;;;;;16.83;15.13;;;18.40;99.90;;;;;;5040589;28;20801;-49
2021/07/26 02:05:58;;;;;;;16.10;14.40;;;18.40;99.90;;;;;;5042123;28;20298;-44
2021/07/26 02:08:25;;;;;;;17.03;14.63;;;18.40;99.90;;;;;;5041548;28;20226;-48
2021/07/26 02:10:53;;;;;;;17.63;15.80;;;18.40;99.90;;;;;;5040295;28;20191;-44
2021/07/26 02:13:20;;;;;;;17.80;15.93;;;18.40;99.90;;;;;;5028562;28;20214;-47
2021/07/26 02:15:47;;;;;;;18.97;16.30;;;18.40;99.90;;;;;;5039661;28;21004;-47
2021/07/26 02:18:13;;;;;;;17.33;15.37;;;18.40;99.90;;;;;;5043407;28;20195;-44
2021/07/26 02:20:40;;;;;;;20.83;15.00;;;18.50;99.90;;;;;;5038824;28;20195;-43
2021/07/26 02:23:06;;;;;;;15.83;14.23;;;18.50;99.90;;;;;;5043015;28;20206;-45
2021/07/26 02:25:33;;;;;;;18.00;16.20;;;18.50;99.90;;;;;;5040297;28;20220;-48
2021/07/26 02:28:01;;;;;;;15.10;13.60;;;18.40;99.90;;;;;;5028589;28;20207;-45
2021/07/26 02:30:27;;;;;;;16.20;14.13;;;18.40;99.90;;;;;;5041000;28;20211;-51
2021/07/26 02:32:54;;;;;;;20.93;15.07;;;18.40;99.90;;;;;;5041047;28;20184;-43
2021/07/26 02:35:21;;;;;;;16.30;14.57;;;18.40;99.90;;;;;;5042529;28;20222;-49
2021/07/26 02:37:47;;;;;;;17.20;14.87;;;18.30;99.90;;;;;;5039363;28;20198;-44
2021/07/26 02:40:14;;;;;;;16.53;14.83;;;18.30;99.90;;;;;;5042535;28;20196;-44
2021/07/26 02:42:41;;;;;;;16.00;14.40;;;18.30;99.90;;;;;;5024841;28;20286;-44
2021/07/26 02:45:10;;;;;;;15.77;14.27;;;18.30;99.90;;;;;;5042702;28;20241;-45
2021/07/26 02:47:36;;;;;;;16.07;13.90;;;18.20;99.90;;;;;;5039371;28;20202;-46
2021/07/26 02:50:04;;;;;;;20.20;15.33;;;18.20;99.90;;;;;;5043524;28;20226;-43
2021/07/26 02:52:30;;;;;;;17.33;15.43;;;18.10;99.90;;;;;;5044410;28;20214;-47
2021/07/26 02:54:57;;;;;;;16.03;14.40;;;18.20;99.90;;;;;;5045094;28;20976;-45
2021/07/26 02:57:24;;;;;;;15.20;13.70;;;18.10;99.90;;;;;;5045165;28;20661;-47
2021/07/26 02:59:50;;;;;;;16.43;14.67;;;18.20;99.90;;;;;;5029886;28;20874;-44
2021/07/26 03:02:18;;;;;;;16.47;14.37;;;18.20;99.90;;;;;;5046297;28;20195;-45
2021/07/26 03:04:45;;;;;;;15.43;13.93;;;18.20;99.90;;;;;;5041076;28;20191;-43
2021/07/26 03:07:11;;;;;;;14.90;13.27;;;18.20;99.90;;;;;;5045998;28;20203;-44
2021/07/26 03:09:38;;;;;;;16.10;14.17;;;18.20;99.90;;;;;;5042134;28;20215;-47
2021/07/26 03:12:06;;;;;;;15.40;13.80;;;18.20;99.90;;;;;;5044607;28;20188;-44
2021/07/26 03:14:32;;;;;;;16.10;14.50;;;18.20;99.90;;;;;;5034300;28;20187;-47
2021/07/26 03:17:02;;;;;;;15.30;13.80;;;18.10;99.90;;;;;;5041438;28;20246;-43
2021/07/26 03:19:30;;;;;;;16.80;14.33;;;18.10;99.90;;;;;;5044007;28;20203;-47
2021/07/26 03:22:27;;;;;;;17.10;14.63;;;18.10;99.90;;;;;;5043263;28;20191;-43
2021/07/26 03:24:56;;;;;;;15.70;14.17;;;18.00;99.90;;;;;;5032383;28;20278;-45
2021/07/26 03:27:24;;;;;;;14.17;12.77;;;18.00;99.90;;;;;;5044846;28;20233;-46
2021/07/26 03:29:51;;;;;;;15.70;14.17;;;18.00;99.90;;;;;;5042782;28;21034;-47
2021/07/26 03:32:17;;;;;;;14.80;13.03;;;18.00;99.90;;;;;;5032524;28;20207;-43
2021/07/26 03:34:45;;;;;;;16.97;15.17;;;18.10;99.90;;;;;;5041428;28;20203;-43
2021/07/26 03:37:12;;;;;;;16.63;14.90;;;18.10;99.90;;;;;;5034848;28;20206;-43
2021/07/26 03:39:38;;;;;;;16.57;14.80;;;18.00;99.90;;;;;;5044538;28;20195;-43
2021/07/26 03:42:05;;;;;;;15.30;13.83;;;18.00;99.90;;;;;;5041548;28;20192;-44
2021/07/26 03:44:32;;;;;;;14.97;13.57;;;18.00;99.90;;;;;;5044477;28;20195;-43
2021/07/26 03:46:59;;;;;;;14.67;13.27;;;18.00;99.90;;;;;;5028827;28;20227;-47
2021/07/26 03:49:26;;;;;;;14.87;13.27;;;18.00;99.90;;;;;;5044330;28;20226;-43
2021/07/26 03:51:53;;;;;;;15.07;13.47;;;18.00;99.90;;;;;;5042895;28;20195;-47
2021/07/26 03:54:20;;;;;;;15.33;13.73;;;18.00;99.90;;;;;;5039958;28;20423;-43
2021/07/26 03:56:47;;;;;;;15.10;13.50;;;18.00;99.90;;;;;;5045138;28;20215;-47
2021/07/26 03:59:13;;;;;;;15.43;13.97;;;18.00;99.90;;;;;;5041580;28;20920;-44
2021/07/26 04:01:40;;;;;;;15.07;13.67;;;17.90;99.90;;;;;;5029738;28;20199;-44
2021/07/26 04:04:06;;;;;;;16.73;15.10;;;18.00;99.90;;;;;;5041178;28;20194;-43
2021/07/26 04:06:33;;;;;;;16.33;14.63;;;18.00;99.90;;;;;;5045042;28;20215;-43
2021/07/26 04:09:02;;;;;;;15.70;14.03;;;18.00;99.90;;;;;;5037283;28;20316;-45
2021/07/26 04:11:32;;;;;;;15.97;14.37;;;18.10;99.90;;;;;;5044385;28;20187;-44
2021/07/26 04:14:01;;;;;;;16.57;14.87;;;18.20;99.90;;;;;;5042317;28;20187;-47
2021/07/26 04:16:28;;;;;;;16.57;14.80;;;18.20;99.90;;;;;;5044758;28;20251;-43
2021/07/26 04:18:56;;;;;;;16.13;14.57;;;18.20;99.90;;;;;;5029027;28;20567;-48
2021/07/26 04:21:29;;;;;;;17.17;15.47;;;18.20;99.90;;;;;;5043361;28;20304;-43
2021/07/26 04:23:56;;;;;;;17.87;16.07;;;18.20;99.90;;;;;;5038243;28;20270;-46
2021/07/26 04:26:23;;;;;;;17.20;15.40;;;18.30;99.90;;;;;;5043331;28;20211;-44
2021/07/26 04:28:50;;;;;;;17.20;15.23;;;18.30;99.90;;;;;;5043231;28;20187;-45
2021/07/26 04:31:17;;;;;;;15.80;14.20;;;18.30;99.90;;;;;;5042210;28;20221;-43
2021/07/26 04:33:43;;;;;;;16.63;14.83;;;18.40;99.90;;;;;;5031088;28;20204;-43
2021/07/26 04:36:10;;;;;;;17.03;15.33;;;18.40;99.90;;;;;;5040534;28;20207;-43
2021/07/26 04:38:37;;;;;;;16.60;15.03;;;18.50;99.90;;;;;;5039199;28;20195;-47
2021/07/26 04:41:03;;;;;;;17.10;15.40;;;18.60;99.90;;;;;;5040733;28;20410;-46
2021/07/26 04:43:31;;;;;;;16.83;15.23;;;18.60;99.90;;;;;;5044291;28;20183;-43
2021/07/26 04:45:59;;;;;;;16.90;15.23;;;18.70;99.90;;;;;;5041840;28;20214;-50
2021/07/26 04:48:26;;;;;;;17.83;16.07;;;18.70;99.90;;;;;;5027307;28;20984;-46
2021/07/26 04:50:52;;;;;;;17.47;15.77;;;18.80;99.90;;;;;;5041261;28;20215;-46
2021/07/26 04:53:19;;;;;;;18.00;16.03;;;18.90;99.90;;;;;;5042531;28;20198;-47
2021/07/26 04:55:46;;;;;;;17.97;15.27;;;19.00;99.90;;;;;;5039184;28;20726;-46
2021/07/26 04:58:12;;;;;;;17.00;15.20;;;19.00;99.90;;;;;;5040784;28;20187;-43
2021/07/26 05:00:40;;;;;;;17.67;15.97;;;19.10;99.90;;;;;;5044117;28;20203;-43
2021/07/26 05:03:08;;;;;;;16.80;15.10;;;19.10;99.90;;;;;;5040191;28;20183;-43
2021/07/26 05:05:35;;;;;;;17.07;15.43;;;19.20;99.90;;;;;;5030375;28;20569;-45
2021/07/26 05:08:02;;;;;;;17.87;15.93;;;19.20;99.90;;;;;;5032615;28;20203;-46
2021/07/26 05:10:29;;;;;;;17.90;16.17;;;19.30;99.90;;;;;;5038497;28;20215;-47
2021/07/26 05:12:56;;;;;;;19.63;16.43;;;19.40;99.90;;;;;;5028328;28;20215;-45
2021/07/26 05:15:22;;;;;;;19.03;15.67;;;19.40;99.90;;;;;;5040320;28;20305;-47
2021/07/26 05:17:50;;;;;;;18.37;16.47;;;19.50;99.90;;;;;;5039032;28;20223;-49
2021/07/26 05:20:17;;;;;;;18.33;16.53;;;19.60;99.90;;;;;;5028335;28;20211;-46
2021/07/26 05:22:44;;;;;;;18.10;16.07;;;19.60;99.90;;;;;;5039650;28;20191;-43
2021/07/26 05:25:11;;;;;;;18.87;15.80;;;19.70;99.90;;;;;;5025743;28;20219;-46
2021/07/26 05:27:38;;;;;;;18.53;16.30;;;19.70;99.90;;;;;;5042987;28;20230;-44
2021/07/26 05:30:08;;;;;;;17.67;15.93;;;19.80;99.90;;;;;;5035434;28;20237;-49
2021/07/26 05:32:34;;;;;;;18.27;16.37;;;19.90;99.90;;;;;;5034599;28;20211;-43
2021/07/26 05:35:02;;;;;;;17.97;16.03;;;19.90;99.90;;;;;;5026770;28;20227;-51
2021/07/26 05:37:29;;;;;;;17.57;15.77;;;20.00;99.90;;;;;;5033840;28;20692;-48
2021/07/26 05:39:55;;;;;;;17.47;15.67;;;20.00;99.90;;;;;;5041085;28;20195;-45
2021/07/26 05:42:22;;;;;;;16.33;14.57;;;20.10;99.90;;;;;;5036379;28;20207;-49
2021/07/26 05:44:49;;;;;;;18.53;16.40;;;20.10;99.90;;;;;;5035855;28;20187;-43
2021/07/26 05:47:15;;;;;;;19.87;15.30;;;20.10;99.90;;;;;;5033289;28;20712;-46
2021/07/26 05:49:43;;;;;;;21.43;18.13;;;20.20;99.90;;;;;;5036381;28;20226;-45
2021/07/26 05:52:11;;;;;;;19.57;15.83;;;20.20;99.90;;;;;;5029417;28;20207;-43
2021/07/26 05:54:38;;;;;;;21.07;17.90;;;20.30;99.90;;;;;;5032347;28;20214;-47
2021/07/26 05:57:10;;;;;;;18.50;15.43;;;20.30;99.90;;;;;;5035394;28;20191;-44
2021/07/26 05:59:36;;;;;;;17.40;15.60;;;20.40;99.90;;;;;;5043138;28;20195;-47
2021/07/26 06:02:03;;;;;;;18.73;15.73;;;20.40;99.90;;;;;;5027242;28;20907;-45
2021/07/26 06:04:30;;;;;;;17.97;16.10;;;20.50;99.90;;;;;;5037290;28;20202;-43
2021/07/26 06:06:58;;;;;;;19.10;16.20;;;20.50;99.90;;;;;;5019968;28;20238;-46
2021/07/26 06:09:26;;;;;;;22.03;17.43;;;20.60;99.90;;;;;;5037469;28;20565;-44
2021/07/26 06:11:54;;;;;;;18.90;17.00;;;20.60;99.90;;;;;;5034322;28;20195;-49
2021/07/26 06:14:21;;;;;;;19.33;17.40;;;20.70;99.90;;;;;;5042265;28;20187;-43
2021/07/26 06:16:50;;;;;;;19.00;16.80;;;20.80;99.90;;;;;;5040535;28;21033;-49
2021/07/26 06:19:19;;;;;;;18.87;16.93;;;20.80;99.90;;;;;;5030203;28;23209;-45
2021/07/26 06:21:48;;;;;;;19.10;17.17;;;20.90;99.90;;;;;;5034870;28;20222;-45
2021/07/26 06:24:16;;;;;;;20.97;16.83;;;21.00;99.90;;;;;;5037251;28;20234;-43
2021/07/26 06:26:45;;;;;;;18.27;16.53;;;21.10;99.90;;;;;;5036379;28;20219;-49
2021/07/26 06:29:11;;;;;;;18.77;16.87;;;21.10;99.90;;;;;;5043737;28;20265;-43
2021/07/26 06:31:38;;;;;;;19.10;17.30;;;21.20;99.90;;;;;;5046103;28;20294;-49
2021/07/26 06:34:06;;;;;;;19.30;17.30;;;21.20;99.90;;;;;;5036756;28;20211;-43
2021/07/26 06:36:33;;;;;;;17.63;15.83;;;21.30;99.90;;;;;;5041846;28;20733;-44
2021/07/26 06:39:01;;;;;;;16.87;15.27;;;21.20;99.90;;;;;;5028950;28;20203;-46
2021/07/26 06:41:27;;;;;;;19.00;15.43;;;21.50;99.90;;;;;;5041577;28;20579;-43
2021/07/26 06:43:55;;;;;;;17.90;15.43;;;21.40;99.90;;;;;;5038743;28;20215;-48
2021/07/26 06:46:22;;;;;;;16.07;14.57;;;21.50;99.90;;;;;;5046493;28;20721;-45
2021/07/26 06:48:48;;;;;;;19.50;16.03;;;21.60;99.90;;;;;;5044146;28;20688;-47
2021/07/26 06:51:16;;;;;;;18.03;16.33;;;21.70;99.90;;;;;;5041162;28;20219;-43
2021/07/26 06:53:43;;;;;;;16.73;15.03;;;21.80;99.90;;;;;;5032060;28;20207;-46
2021/07/26 06:56:11;;;;;;;17.33;15.57;;;22.00;99.90;;;;;;5043167;28;20211;-43
2021/07/26 06:58:39;;;;;;;15.03;13.50;;;22.10;99.90;;;;;;5041133;28;20199;-46
2021/07/26 07:01:09;;;;;;;12.70;11.33;;;22.30;99.90;;;;;;5043260;28;20901;-48
2021/07/26 07:03:36;;;;;;;12.33;10.83;;;22.50;99.90;;;;;;5041411;28;20743;-43
2021/07/26 07:06:04;;;;;;;14.77;11.63;;;22.70;99.90;;;;;;5037877;28;20775;-45
2021/07/26 07:08:31;;;;;;;12.40;10.83;;;22.90;99.90;;;;;;4995046;28;20546;-44
2021/07/26 07:11:06;;;;;;;10.87;9.77;;;23.00;99.90;;;;;;5022943;28;20246;-43
2021/07/26 07:13:33;;;;;;;10.82;9.82;;;23.00;99.90;;;;;;5034518;28;20195;-43
2021/07/26 07:15:59;;;;;;;15.45;10.25;;;23.10;99.90;;;;;;5040899;28;20218;-47
2021/07/26 07:18:28;;;;;;;10.40;9.20;;;23.10;99.90;;;;;;5036971;28;20215;-48
2021/07/26 07:20:54;;;;;;;10.90;9.90;;;23.20;99.90;;;;;;5043586;28;20560;-44
2021/07/26 07:23:21;;;;;;;11.10;10.00;;;23.20;99.90;;;;;;5042793;28;20199;-46
2021/07/26 07:25:48;;;;;;;10.50;9.13;;;23.30;99.90;;;;;;5028407;28;20333;-44
2021/07/26 07:28:14;;;;;;;10.05;9.10;;;23.40;99.90;;;;;;5043138;28;20620;-49
2021/07/26 07:30:41;;;;;;;10.32;9.32;;;23.40;99.90;;;;;;5037862;28;20218;-44
2021/07/26 07:33:07;;;;;;;9.90;8.60;;;23.50;99.90;;;;;;5044940;28;20195;-46
2021/07/26 07:35:35;;;;;;;8.20;7.40;;;23.60;99.90;;;;;;5028576;28;20936;-46
2021/07/26 07:38:02;;;;;;;8.80;6.47;;;23.70;99.90;;;;;;5032281;28;20214;-43
2021/07/26 07:40:29;;;;;;;9.35;7.80;;;23.70;99.90;;;;;;5022626;28;20665;-46
2021/07/26 07:42:56;;;;;;;8.00;7.40;;;23.90;99.90;;;;;;5039746;28;20227;-44
2021/07/26 07:45:23;;;;;;;11.27;7.65;;;23.90;99.90;;;;;;5033897;28;20737;-46
2021/07/26 07:47:52;;;;;;;7.68;6.53;;;23.90;99.90;;;;;;5037157;28;20195;-45
2021/07/26 07:50:20;;;;;;;7.00;5.97;;;23.10;99.90;;;;;;5038138;28;20234;-48
2021/07/26 07:52:48;;;;;;;7.03;6.43;;;23.70;99.90;;;;;;5037513;28;20210;-44
2021/07/26 07:55:15;;;;;;;6.50;5.95;;;24.20;99.90;;;;;;5039502;28;20881;-43
2021/07/26 07:57:41;;;;;;;6.28;5.70;;;24.20;99.90;;;;;;5030689;28;20199;-43
2021/07/26 08:00:09;;;;;;;6.22;5.38;;;24.70;99.90;;;;;;5032438;28;20681;-46
2021/07/26 08:02:36;;;;;;;5.38;4.95;;;24.30;99.90;;;;;;5044661;28;20211;-45
2021/07/26 08:05:03;;;;;;;5.68;5.18;;;24.30;99.90;;;;;;5037341;28;20223;-49
2021/07/26 08:07:30;;;;;;;6.40;5.07;;;24.30;99.90;;;;;;5042921;28;20210;-46
2021/07/26 08:09:58;;;;;;;5.55;5.05;;;24.30;99.90;;;;;;5040793;28;20192;-49
2021/07/26 08:12:24;;;;;;;5.68;4.65;;;24.30;99.90;;;;;;5026603;28;20203;-45
2021/07/26 08:14:51;;;;;;;5.43;4.93;;;24.20;99.90;;;;;;5039619;28;20203;-48
2021/07/26 08:17:18;;;;;;;6.85;4.30;;;24.20;99.90;;;;;;5036497;28;20905;-45
2021/07/26 08:19:45;;;;;;;4.82;4.43;;;24.10;99.90;;;;;;5038906;28;20209;-47
2021/07/26 08:22:11;;;;;;;5.18;4.70;;;24.00;99.90;;;;;;5036198;28;20187;-43
2021/07/26 08:24:39;;;;;;;5.63;5.07;;;24.00;99.90;;;;;;5044216;28;20203;-44
2021/07/26 08:27:07;;;;;;;6.82;5.18;;;24.10;99.90;;;;;;5028555;28;20207;-49
2021/07/26 08:29:34;;;;;;;5.05;4.65;;;24.10;99.90;;;;;;5039051;28;20226;-44
2021/07/26 08:32:01;;;;;;;5.90;5.30;;;24.10;99.90;;;;;;5037306;28;20215;-49
2021/07/26 08:34:27;;;;;;;8.13;5.50;;;24.00;99.90;;;;;;5042737;28;20877;-44
2021/07/26 08:36:55;;;;;;;6.38;5.10;;;24.00;99.90;;;;;;5042411;28;20298;-48
2021/07/26 08:39:22;;;;;;;6.25;5.60;;;24.00;99.90;;;;;;5037634;28;20204;-45
2021/07/26 08:41:49;;;;;;;6.07;5.20;;;23.90;99.90;;;;;;5036853;28;20657;-43
2021/07/26 08:44:17;;;;;;;7.57;6.07;;;23.90;99.90;;;;;;5021061;28;20199;-45
2021/07/26 08:46:44;;;;;;;6.13;5.30;;;23.90;99.90;;;;;;5038267;28;20955;-44
2021/07/26 08:49:12;;;;;;;6.90;6.07;;;23.90;99.90;;;;;;5038046;28;20964;-48
2021/07/26 08:51:43;;;;;;;6.47;5.88;;;23.90;99.90;;;;;;5039964;28;20224;-44
2021/07/26 08:54:11;;;;;;;5.82;5.25;;;23.80;99.90;;;;;;5035402;28;20199;-48
2021/07/26 08:56:38;;;;;;;5.50;5.00;;;23.80;99.90;;;;;;5043077;28;20219;-45
2021/07/26 08:59:05;;;;;;;5.30;4.85;;;23.80;99.90;;;;;;5025965;28;20682;-47
2021/07/26 09:01:34;;;;;;;5.90;5.40;;;23.80;99.90;;;;;;5035031;28;20684;-45
2021/07/26 09:04:01;;;;;;;6.68;6.07;;;23.80;99.90;;;;;;5041763;28;20669;-48
2021/07/26 09:06:28;;;;;;;7.78;6.25;;;23.80;99.90;;;;;;5042337;28;20215;-47
2021/07/26 09:08:55;;;;;;;14.30;5.85;;;23.80;99.90;;;;;;5039268;28;20202;-48
2021/07/26 09:11:22;;;;;;;7.78;6.28;;;23.70;99.90;;;;;;5040624;28;20218;-44
2021/07/26 09:13:48;;;;;;;5.38;4.97;;;23.70;99.90;;;;;;5043351;28;20206;-49
2021/07/26 09:16:17;;;;;;;7.78;5.78;;;23.70;99.90;;;;;;5019526;28;20792;-44
2021/07/26 09:18:46;;;;;;;6.28;5.55;;;23.70;99.90;;;;;;5043578;28;20218;-44
2021/07/26 09:21:12;;;;;;;7.78;5.68;;;23.70;99.90;;;;;;5039645;28;20195;-44
2021/07/26 09:24:02;;;;;;;7.22;5.07;;;23.70;99.90;;;;;;5033340;28;20202;-43
2021/07/26 09:26:29;;;;;;;5.57;5.13;;;23.70;99.90;;;;;;5040610;28;20227;-65
2021/07/26 09:28:56;;;;;;;6.00;5.50;;;23.70;99.90;;;;;;5034918;28;20211;-65
2021/07/26 09:31:24;;;;;;;8.82;5.93;;;23.70;99.90;;;;;;5023331;28;20219;-65
2021/07/26 09:33:53;;;;;;;7.70;5.25;;;23.70;99.90;;;;;;5036089;28;20195;-65
2021/07/26 09:36:20;;;;;;;9.50;5.43;;;23.70;99.90;;;;;;5039480;28;20215;-65
2021/07/26 09:38:56;;;;;;;6.72;4.72;;;23.70;99.90;;;;;;5034756;28;20227;-65
2021/07/26 09:41:52;;;;;;;8.23;5.32;;;23.70;99.90;;;;;;5034122;28;20193;-65
2021/07/26 09:44:22;;;;;;;6.22;5.63;;;23.70;99.90;;;;;;5003598;28;20198;-65
2021/07/26 09:46:49;;;;;;;5.07;4.65;;;23.70;99.90;;;;;;5023097;28;20280;-65
2021/07/26 09:49:18;;;;;;;8.25;5.00;;;23.70;99.90;;;;;;5034379;28;20195;-65
2021/07/26 09:52:04;;;;;;;10.20;6.03;;;23.60;99.90;;;;;;5036724;28;20244;-65
2021/07/26 09:54:41;;;;;;;9.90;5.80;;;23.60;99.90;;;;;;5040854;28;20203;-65
2021/07/26 09:57:15;;;;;;;7.25;6.07;;;23.50;99.90;;;;;;5033605;28;20211;-65
2021/07/26 09:59:44;;;;;;;7.45;6.68;;;23.50;99.90;;;;;;5040274;28;20230;-65
2021/07/26 10:02:14;;;;;;;8.20;7.10;;;23.40;99.90;;;;;;5016146;28;20264;-65
2021/07/26 10:04:43;;;;;;;8.65;7.03;;;23.40;99.90;;;;;;5037328;28;20199;-66
2021/07/26 10:07:11;;;;;;;12.27;7.50;;;23.30;99.90;;;;;;5027400;28;20200;-65
2021/07/26 10:09:40;;;;;;;8.35;7.65;;;23.30;99.90;;;;;;5038620;28;20210;-65
2021/07/26 10:12:10;;;;;;;9.38;8.43;;;23.20;99.90;;;;;;5034381;28;20219;-65
2021/07/26 10:14:37;;;;;;;10.05;8.25;;;23.20;99.90;;;;;;5039704;28;20564;-65
2021/07/26 10:17:04;;;;;;;9.27;8.38;;;23.10;99.90;;;;;;5024882;28;20214;-64
2021/07/26 10:19:32;;;;;;;11.82;8.90;;;23.10;99.90;;;;;;5034918;28;20196;-65
2021/07/26 10:22:01;;;;;;;11.70;9.07;;;23.00;99.90;;;;;;5042433;28;20207;-64
2021/07/26 10:24:34;;;;;;;8.80;7.75;;;23.00;99.90;;;;;;5038338;28;20214;-64
2021/07/26 10:27:03;;;;;;;8.80;8.00;;;22.80;99.90;;;;;;5038892;28;20230;-65
2021/07/26 10:29:51;;;;;;;8.13;7.30;;;22.80;99.90;;;;;;5038488;28;20210;-65
2021/07/26 10:32:37;;;;;;;10.95;6.72;;;22.70;99.90;;;;;;5032525;28;20230;-65
2021/07/26 10:35:25;;;;;;;7.63;6.93;;;22.60;99.90;;;;;;5040335;28;20219;-65
2021/07/26 10:37:53;;;;;;;6.57;5.82;;;22.40;99.90;;;;;;5041729;28;20192;-64
2021/07/26 10:40:21;;;;;;;6.10;5.60;;;22.40;99.90;;;;;;5034464;28;20204;-64
2021/07/26 10:42:48;;;;;;;6.35;5.75;;;22.40;99.90;;;;;;5038691;28;20192;-65
2021/07/26 10:45:54;;;;;;;6.35;5.50;;;22.30;99.90;;;;;;5040743;28;20215;-64
2021/07/26 10:48:35;;;;;;;7.90;5.25;;;22.30;99.90;;;;;;5000898;28;20207;-64
2021/07/26 10:51:02;;;;;;;6.07;5.13;;;22.20;99.90;;;;;;5022614;28;20227;-64
2021/07/26 10:53:58;;;;;;;5.05;4.30;;;22.30;99.90;;;;;;5038756;28;20253;-64
2021/07/26 10:56:25;;;;;;;5.07;4.57;;;22.30;99.90;;;;;;5033251;28;20220;-65
2021/07/26 10:59:05;;;;;;;5.95;4.93;;;22.40;99.90;;;;;;5024821;28;20204;-65
2021/07/26 11:01:55;;;;;;;5.32;4.82;;;22.40;99.90;;;;;;5032943;28;20217;-55
2021/07/26 11:04:42;;;;;;;6.18;4.90;;;22.40;99.90;;;;;;5025214;28;20215;-52
2021/07/26 11:07:11;;;;;;;4.60;3.78;;;22.50;99.90;;;;;;5034056;28;20213;-49
2021/07/26 11:09:47;;;;;;;5.22;4.57;;;22.60;99.90;;;;;;5029612;28;20206;-51
2021/07/26 11:12:14;;;;;;;6.53;4.47;;;22.60;99.90;;;;;;5038718;28;21009;-47
2021/07/26 11:15:14;;;;;;;5.03;4.63;;;22.70;99.90;;;;;;5040659;28;20203;-47
2021/07/26 11:18:34;;;;;;;5.18;4.22;;;22.70;99.90;;;;;;5042774;28;20201;-47
2021/07/26 11:21:06;;;;;;;5.68;4.53;;;22.80;99.90;;;;;;5035291;28;20215;-49
2021/07/26 11:23:52;;;;;;;5.20;4.80;;;23.00;99.90;;;;;;5042358;28;20203;-49
2021/07/26 11:26:30;;;;;;;5.75;4.22;;;23.10;99.90;;;;;;5033268;28;20318;-47
2021/07/26 11:28:59;;;;;;;4.72;4.32;;;23.10;99.90;;;;;;5042341;28;20202;-52
2021/07/26 11:31:30;;;;;;;5.90;4.60;;;23.30;99.90;;;;;;5042586;28;20604;-50
2021/07/26 11:34:11;;;;;;;4.75;4.35;;;23.50;99.90;;;;;;5024898;28;20226;-46
2021/07/26 11:36:59;;;;;;;5.50;5.00;;;23.50;99.90;;;;;;5044661;28;20215;-44
2021/07/26 11:39:26;;;;;;;5.30;4.80;;;23.50;99.90;;;;;;5034534;28;20196;-43
2021/07/26 11:41:54;;;;;;;5.55;4.15;;;23.60;99.90;;;;;;5031204;28;20195;-44
2021/07/26 11:44:28;;;;;;;5.45;4.15;;;23.80;99.90;;;;;;5035846;28;20202;-42
2021/07/26 11:46:56;;;;;;;5.18;4.07;;;23.90;99.90;;;;;;5033621;28;20219;-46
2021/07/26 11:49:24;;;;;;;5.57;4.40;;;24.00;99.90;;;;;;5029012;28;20211;-42
2021/07/26 11:52:04;;;;;;;4.05;3.75;;;24.20;99.90;;;;;;5037104;28;20219;-44
2021/07/26 11:54:31;;;;;;;4.25;3.85;;;24.20;99.90;;;;;;5033377;28;20711;-43
2021/07/26 11:57:06;;;;;;;5.20;4.43;;;24.40;99.90;;;;;;5029121;28;20211;-40
2021/07/26 11:59:34;;;;;;;3.70;3.40;;;24.40;99.90;;;;;;5037428;28;20195;-43
2021/07/26 12:02:06;;;;;;;4.18;3.78;;;24.40;99.90;;;;;;5036567;28;20968;-45
2021/07/26 12:04:34;;;;;;;5.32;3.47;;;24.50;99.90;;;;;;5035473;28;20203;-46
2021/07/26 12:07:02;;;;;;;6.35;4.10;;;24.70;99.90;;;;;;5033539;28;20285;-45
2021/07/26 12:09:29;;;;;;;4.13;3.60;;;24.90;99.90;;;;;;5044369;28;20203;-42
2021/07/26 12:12:09;;;;;;;3.85;3.50;;;25.10;99.90;;;;;;5040474;28;20207;-41
2021/07/26 12:14:36;;;;;;;3.00;2.80;;;25.30;99.90;;;;;;5038910;28;20199;-45
2021/07/26 12:17:06;;;;;;;3.80;3.50;;;25.40;99.90;;;;;;5041072;28;20215;-40
2021/07/26 12:19:34;;;;;;;3.50;2.85;;;25.60;99.90;;;;;;5026165;28;20203;-40
2021/07/26 12:22:25;;;;;;;3.83;3.50;;;25.50;99.90;;;;;;5026794;28;20207;-44
2021/07/26 12:24:59;;;;;;;6.43;3.30;;;25.50;99.90;;;;;;5017625;28;20830;-40
2021/07/26 12:27:30;;;;;;;3.75;3.40;;;25.50;99.90;;;;;;5040762;28;20730;-43
2021/07/26 12:29:58;;;;;;;3.22;3.00;;;25.40;99.90;;;;;;5032956;28;20218;-40
2021/07/26 12:32:26;;;;;;;3.33;3.03;;;25.70;99.90;;;;;;5041897;28;20227;-46
2021/07/26 12:35:32;;;;;;;3.80;3.35;;;26.00;99.90;;;;;;5031626;28;20199;-44
2021/07/26 12:38:19;;;;;;;3.95;3.65;;;26.20;99.90;;;;;;5027586;28;20978;-43
2021/07/26 12:40:49;;;;;;;3.38;3.10;;;26.20;99.90;;;;;;5023324;28;20199;-43
2021/07/26 12:43:19;;;;;;;3.83;3.10;;;26.30;99.90;;;;;;5033469;28;20195;-41
2021/07/26 12:46:00;;;;;;;3.45;2.65;;;26.30;99.90;;;;;;5036025;28;20215;-43
2021/07/26 12:48:28;;;;;;;2.97;2.75;;;26.50;99.90;;;;;;5036307;28;20848;-41